sensor_id;sensor_type;location;lat;lon;timestamp;P1;durP1;ratioP1;P2;durP2;ratioP2
10884;SDS011;5495;53.252;10.390;2023-04-15T00:02:15;8.90;;;6.30;;
10884;SDS011;5495;53.252;10.390;2023-04-15T00:04:45;7.53;;;5.20;;
10884;SDS011;5495;53.252;10.390;2023-04-15T00:07:13;9.23;;;5.43;;
10884;SDS011;5495;53.252;10.390;2023-04-15T00:09:42;7.57;;;5.00;;
10884;SDS011;5495;53.252;10.390;2023-04-15T00:12:10;6.67;;;4.67;;
10884;SDS011;5495;53.252;10.390;2023-04-15T00:14:37;4.67;;;3.57;;
10884;SDS011;5495;53.252;10.390;2023-04-15T00:17:04;4.93;;;3.77;;
10884;SDS011;5495;53.252;10.390;2023-04-15T00:19:33;4.13;;;3.27;;
10884;SDS011;5495;53.252;10.390;2023-04-15T00:22:00;3.90;;;3.07;;
10884;SDS011;5495;53.252;10.390;2023-04-15T00:24:27;3.80;;;3.20;;
10884;SDS011;5495;53.252;10.390;2023-04-15T00:26:57;4.93;;;2.83;;
10884;SDS011;5495;53.252;10.390;2023-04-15T00:29:29;5.77;;;3.20;;
10884;SDS011;5495;53.252;10.390;2023-04-15T00:31:56;5.13;;;3.17;;
10884;SDS011;5495;53.252;10.390;2023-04-15T00:34:23;3.50;;;2.67;;
10884;SDS011;5495;53.252;10.390;2023-04-15T00:36:50;3.67;;;2.80;;
10884;SDS011;5495;53.252;10.390;2023-04-15T00:39:17;4.73;;;3.03;;
10884;SDS011;5495;53.252;10.390;2023-04-15T00:41:44;5.30;;;3.23;;
10884;SDS011;5495;53.252;10.390;2023-04-15T00:44:16;4.30;;;3.00;;
10884;SDS011;5495;53.252;10.390;2023-04-15T00:46:43;4.30;;;3.27;;
10884;SDS011;5495;53.252;10.390;2023-04-15T00:49:13;4.80;;;3.10;;
10884;SDS011;5495;53.252;10.390;2023-04-15T00:51:43;4.27;;;3.27;;
10884;SDS011;5495;53.252;10.390;2023-04-15T00:54:10;3.73;;;3.20;;
10884;SDS011;5495;53.252;10.390;2023-04-15T00:56:37;4.67;;;3.53;;
10884;SDS011;5495;53.252;10.390;2023-04-15T00:59:07;5.23;;;3.70;;
10884;SDS011;5495;53.252;10.390;2023-04-15T01:01:35;4.27;;;3.10;;
10884;SDS011;5495;53.252;10.390;2023-04-15T01:04:03;4.50;;;3.43;;
10884;SDS011;5495;53.252;10.390;2023-04-15T01:06:30;4.53;;;3.40;;
10884;SDS011;5495;53.252;10.390;2023-04-15T01:09:00;5.63;;;3.63;;
10884;SDS011;5495;53.252;10.390;2023-04-15T01:11:27;3.77;;;3.13;;
10884;SDS011;5495;53.252;10.390;2023-04-15T01:13:57;3.53;;;3.10;;
10884;SDS011;5495;53.252;10.390;2023-04-15T01:16:25;4.03;;;3.33;;
10884;SDS011;5495;53.252;10.390;2023-04-15T01:18:54;6.47;;;3.40;;
10884;SDS011;5495;53.252;10.390;2023-04-15T01:21:21;4.50;;;3.20;;
10884;SDS011;5495;53.252;10.390;2023-04-15T01:23:49;3.70;;;3.20;;
10884;SDS011;5495;53.252;10.390;2023-04-15T01:26:19;4.03;;;2.87;;
10884;SDS011;5495;53.252;10.390;2023-04-15T01:28:47;3.97;;;3.20;;
10884;SDS011;5495;53.252;10.390;2023-04-15T01:31:15;4.80;;;3.53;;
10884;SDS011;5495;53.252;10.390;2023-04-15T01:33:42;3.80;;;2.93;;
10884;SDS011;5495;53.252;10.390;2023-04-15T01:36:09;4.30;;;3.23;;
10884;SDS011;5495;53.252;10.390;2023-04-15T01:38:36;4.33;;;3.17;;
10884;SDS011;5495;53.252;10.390;2023-04-15T01:41:04;3.43;;;2.77;;
10884;SDS011;5495;53.252;10.390;2023-04-15T01:43:36;3.43;;;2.97;;
10884;SDS011;5495;53.252;10.390;2023-04-15T01:46:03;4.67;;;3.47;;
10884;SDS011;5495;53.252;10.390;2023-04-15T01:48:33;3.40;;;2.93;;
10884;SDS011;5495;53.252;10.390;2023-04-15T01:51:00;3.40;;;2.73;;
10884;SDS011;5495;53.252;10.390;2023-04-15T01:53:27;4.67;;;3.13;;
10884;SDS011;5495;53.252;10.390;2023-04-15T01:55:54;4.00;;;3.30;;
10884;SDS011;5495;53.252;10.390;2023-04-15T01:58:25;4.03;;;3.20;;
10884;SDS011;5495;53.252;10.390;2023-04-15T02:00:54;4.40;;;3.13;;
10884;SDS011;5495;53.252;10.390;2023-04-15T02:03:21;4.40;;;3.27;;
10884;SDS011;5495;53.252;10.390;2023-04-15T02:05:48;4.43;;;3.17;;
10884;SDS011;5495;53.252;10.390;2023-04-15T02:08:16;4.00;;;3.17;;
10884;SDS011;5495;53.252;10.390;2023-04-15T02:10:43;4.20;;;3.30;;
10884;SDS011;5495;53.252;10.390;2023-04-15T02:13:10;4.37;;;3.77;;
10884;SDS011;5495;53.252;10.390;2023-04-15T02:15:37;4.53;;;3.47;;
10884;SDS011;5495;53.252;10.390;2023-04-15T02:18:05;4.03;;;3.47;;
10884;SDS011;5495;53.252;10.390;2023-04-15T02:20:32;4.90;;;3.63;;
10884;SDS011;5495;53.252;10.390;2023-04-15T02:23:00;4.03;;;3.53;;
10884;SDS011;5495;53.252;10.390;2023-04-15T02:25:27;5.17;;;4.07;;
10884;SDS011;5495;53.252;10.390;2023-04-15T02:27:56;4.27;;;3.43;;
10884;SDS011;5495;53.252;10.390;2023-04-15T02:30:24;4.57;;;3.30;;
10884;SDS011;5495;53.252;10.390;2023-04-15T02:32:51;5.50;;;3.70;;
10884;SDS011;5495;53.252;10.390;2023-04-15T02:35:19;5.40;;;4.00;;
10884;SDS011;5495;53.252;10.390;2023-04-15T02:37:46;4.97;;;3.90;;
10884;SDS011;5495;53.252;10.390;2023-04-15T02:40:13;5.93;;;4.10;;
10884;SDS011;5495;53.252;10.390;2023-04-15T02:42:41;5.63;;;4.23;;
10884;SDS011;5495;53.252;10.390;2023-04-15T02:45:09;5.33;;;3.87;;
10884;SDS011;5495;53.252;10.390;2023-04-15T02:47:37;4.87;;;3.67;;
10884;SDS011;5495;53.252;10.390;2023-04-15T02:50:06;4.97;;;3.70;;
10884;SDS011;5495;53.252;10.390;2023-04-15T02:52:37;5.20;;;3.67;;
10884;SDS011;5495;53.252;10.390;2023-04-15T02:55:05;5.77;;;4.17;;
10884;SDS011;5495;53.252;10.390;2023-04-15T02:57:33;5.20;;;4.20;;
10884;SDS011;5495;53.252;10.390;2023-04-15T03:00:05;5.47;;;4.03;;
10884;SDS011;5495;53.252;10.390;2023-04-15T03:02:38;5.67;;;4.40;;
10884;SDS011;5495;53.252;10.390;2023-04-15T03:05:10;5.37;;;4.00;;
10884;SDS011;5495;53.252;10.390;2023-04-15T03:07:39;5.17;;;4.17;;
10884;SDS011;5495;53.252;10.390;2023-04-15T03:13:01;6.43;;;4.47;;
10884;SDS011;5495;53.252;10.390;2023-04-15T03:15:28;5.50;;;4.13;;
10884;SDS011;5495;53.252;10.390;2023-04-15T03:17:56;7.50;;;4.97;;
10884;SDS011;5495;53.252;10.390;2023-04-15T03:20:23;7.43;;;5.13;;
10884;SDS011;5495;53.252;10.390;2023-04-15T03:22:51;6.43;;;4.57;;
10884;SDS011;5495;53.252;10.390;2023-04-15T03:25:18;6.83;;;5.00;;
10884;SDS011;5495;53.252;10.390;2023-04-15T03:27:45;7.40;;;4.60;;
10884;SDS011;5495;53.252;10.390;2023-04-15T03:30:12;8.73;;;5.17;;
10884;SDS011;5495;53.252;10.390;2023-04-15T03:32:39;7.03;;;4.87;;
10884;SDS011;5495;53.252;10.390;2023-04-15T03:35:06;8.20;;;5.30;;
10884;SDS011;5495;53.252;10.390;2023-04-15T03:37:34;6.83;;;5.00;;
10884;SDS011;5495;53.252;10.390;2023-04-15T03:40:07;8.83;;;6.00;;
10884;SDS011;5495;53.252;10.390;2023-04-15T03:42:35;8.20;;;5.83;;
10884;SDS011;5495;53.252;10.390;2023-04-15T03:45:02;7.57;;;5.17;;
10884;SDS011;5495;53.252;10.390;2023-04-15T03:47:30;8.07;;;5.30;;
10884;SDS011;5495;53.252;10.390;2023-04-15T03:49:57;7.40;;;6.03;;
10884;SDS011;5495;53.252;10.390;2023-04-15T03:52:24;8.93;;;6.10;;
10884;SDS011;5495;53.252;10.390;2023-04-15T03:54:51;8.60;;;6.23;;
10884;SDS011;5495;53.252;10.390;2023-04-15T03:57:20;8.80;;;6.03;;
10884;SDS011;5495;53.252;10.390;2023-04-15T03:59:47;9.10;;;5.97;;
10884;SDS011;5495;53.252;10.390;2023-04-15T04:02:14;9.57;;;6.40;;
10884;SDS011;5495;53.252;10.390;2023-04-15T04:04:41;10.63;;;7.10;;
10884;SDS011;5495;53.252;10.390;2023-04-15T04:07:10;10.13;;;6.83;;
10884;SDS011;5495;53.252;10.390;2023-04-15T04:09:43;11.77;;;7.00;;
10884;SDS011;5495;53.252;10.390;2023-04-15T04:12:13;9.47;;;6.23;;
10884;SDS011;5495;53.252;10.390;2023-04-15T04:14:41;11.67;;;7.17;;
10884;SDS011;5495;53.252;10.390;2023-04-15T04:17:08;10.30;;;6.57;;
10884;SDS011;5495;53.252;10.390;2023-04-15T04:19:37;11.77;;;7.03;;
10884;SDS011;5495;53.252;10.390;2023-04-15T04:22:06;10.60;;;7.10;;
10884;SDS011;5495;53.252;10.390;2023-04-15T04:24:36;10.63;;;6.63;;
10884;SDS011;5495;53.252;10.390;2023-04-15T04:27:03;11.97;;;7.27;;
10884;SDS011;5495;53.252;10.390;2023-04-15T04:29:30;12.00;;;7.37;;
10884;SDS011;5495;53.252;10.390;2023-04-15T04:31:58;10.37;;;7.37;;
10884;SDS011;5495;53.252;10.390;2023-04-15T04:34:25;12.17;;;7.13;;
10884;SDS011;5495;53.252;10.390;2023-04-15T04:36:52;11.57;;;7.03;;
10884;SDS011;5495;53.252;10.390;2023-04-15T04:39:19;11.23;;;7.53;;
10884;SDS011;5495;53.252;10.390;2023-04-15T04:41:55;12.63;;;7.27;;
10884;SDS011;5495;53.252;10.390;2023-04-15T04:44:22;11.53;;;7.30;;
10884;SDS011;5495;53.252;10.390;2023-04-15T04:46:52;11.53;;;6.97;;
10884;SDS011;5495;53.252;10.390;2023-04-15T04:49:20;11.13;;;7.37;;
10884;SDS011;5495;53.252;10.390;2023-04-15T04:51:47;10.33;;;6.90;;
10884;SDS011;5495;53.252;10.390;2023-04-15T04:54:16;11.20;;;7.30;;
10884;SDS011;5495;53.252;10.390;2023-04-15T04:56:50;11.70;;;7.27;;
10884;SDS011;5495;53.252;10.390;2023-04-15T04:59:29;11.10;;;6.37;;
10884;SDS011;5495;53.252;10.390;2023-04-15T05:01:56;10.20;;;6.80;;
10884;SDS011;5495;53.252;10.390;2023-04-15T05:04:27;11.47;;;7.33;;
10884;SDS011;5495;53.252;10.390;2023-04-15T05:06:56;11.93;;;7.33;;
10884;SDS011;5495;53.252;10.390;2023-04-15T05:09:23;11.20;;;7.53;;
10884;SDS011;5495;53.252;10.390;2023-04-15T05:11:54;11.90;;;7.53;;
10884;SDS011;5495;53.252;10.390;2023-04-15T05:15:17;12.87;;;7.93;;
10884;SDS011;5495;53.252;10.390;2023-04-15T05:17:45;14.90;;;8.60;;
10884;SDS011;5495;53.252;10.390;2023-04-15T05:20:15;13.90;;;7.90;;
10884;SDS011;5495;53.252;10.390;2023-04-15T05:22:42;14.53;;;8.37;;
10884;SDS011;5495;53.252;10.390;2023-04-15T05:25:12;12.43;;;8.07;;
10884;SDS011;5495;53.252;10.390;2023-04-15T05:35:55;13.57;;;8.13;;
10884;SDS011;5495;53.252;10.390;2023-04-15T05:38:24;14.23;;;8.00;;
10884;SDS011;5495;53.252;10.390;2023-04-15T05:41:09;14.00;;;8.40;;
10884;SDS011;5495;53.252;10.390;2023-04-15T05:44:00;13.57;;;7.77;;
10884;SDS011;5495;53.252;10.390;2023-04-15T05:47:27;13.63;;;7.90;;
10884;SDS011;5495;53.252;10.390;2023-04-15T05:53:34;14.00;;;8.73;;
10884;SDS011;5495;53.252;10.390;2023-04-15T05:56:06;17.70;;;10.27;;
10884;SDS011;5495;53.252;10.390;2023-04-15T05:58:33;16.30;;;9.83;;
10884;SDS011;5495;53.252;10.390;2023-04-15T06:01:04;17.77;;;10.17;;
10884;SDS011;5495;53.252;10.390;2023-04-15T06:03:36;18.43;;;9.60;;
10884;SDS011;5495;53.252;10.390;2023-04-15T06:06:33;17.20;;;9.43;;
10884;SDS011;5495;53.252;10.390;2023-04-15T06:12:24;21.70;;;11.47;;
10884;SDS011;5495;53.252;10.390;2023-04-15T06:15:08;19.70;;;11.47;;
10884;SDS011;5495;53.252;10.390;2023-04-15T06:25:43;21.40;;;12.30;;
10884;SDS011;5495;53.252;10.390;2023-04-15T06:34:02;20.50;;;12.37;;
10884;SDS011;5495;53.252;10.390;2023-04-15T06:36:42;20.23;;;12.13;;
